createdAt,value
2018-12-21T00:02:51.283Z,2.73
2018-12-21T00:07:56.071Z,2.33
2018-12-21T00:13:01.138Z,2.37
2018-12-21T00:18:06.086Z,2.60
2018-12-21T00:23:10.879Z,2.67
2018-12-21T00:28:15.673Z,2.23
2018-12-21T00:33:26.070Z,2.20
2018-12-21T00:38:36.281Z,2.20
2018-12-21T00:43:48.301Z,2.73
2018-12-21T00:48:54.232Z,1.90
2018-12-21T00:53:58.975Z,2.00
2018-12-21T00:59:03.906Z,2.53
2018-12-21T01:04:08.816Z,2.30
2018-12-21T01:09:13.566Z,2.20
2018-12-21T01:14:18.574Z,2.30
2018-12-21T01:19:23.503Z,2.20
2018-12-21T01:24:28.312Z,1.70
2018-12-21T01:29:33.194Z,2.20
2018-12-21T01:34:37.981Z,2.10
2018-12-21T01:39:42.862Z,1.80
2018-12-21T01:44:47.844Z,2.27
2018-12-21T01:49:52.681Z,2.00
2018-12-21T01:54:57.465Z,1.80
2018-12-21T02:00:02.459Z,2.00
2018-12-21T02:05:07.425Z,1.80
2018-12-21T02:10:13.391Z,2.13
2018-12-21T02:15:18.151Z,1.60
2018-12-21T02:20:23.944Z,1.67
2018-12-21T02:25:28.735Z,1.70
2018-12-21T02:30:33.575Z,1.70
2018-12-21T02:35:38.391Z,1.93
2018-12-21T02:40:43.311Z,1.73
2018-12-21T02:45:48.219Z,1.80
2018-12-21T02:50:53.159Z,1.60
2018-12-21T02:55:58.376Z,1.47
2018-12-21T03:01:03.366Z,1.60
2018-12-21T03:06:08.312Z,1.67
2018-12-21T03:11:13.139Z,1.60
2018-12-21T03:16:17.962Z,1.70
2018-12-21T03:21:23.020Z,1.60
2018-12-21T03:26:27.865Z,1.57
2018-12-21T03:31:32.615Z,1.50
2018-12-21T03:36:37.628Z,1.73
2018-12-21T03:41:42.576Z,1.60
2018-12-21T03:46:47.542Z,1.60
2018-12-21T03:51:52.550Z,1.80
2018-12-21T03:56:57.507Z,1.70
2018-12-21T04:02:02.474Z,1.60
2018-12-21T04:07:07.322Z,1.63
2018-12-21T04:12:12.065Z,1.40
2018-12-21T04:17:16.859Z,1.40
2018-12-21T04:22:21.872Z,1.30
2018-12-21T04:27:26.657Z,1.60
2018-12-21T04:32:31.491Z,1.53
2018-12-21T04:37:36.313Z,1.03
2018-12-21T04:42:41.372Z,1.07
2018-12-21T04:47:46.311Z,1.10
2018-12-21T04:52:51.085Z,1.10
2018-12-21T04:57:55.919Z,0.93
2018-12-21T05:03:01.275Z,0.90
2018-12-21T05:08:06.048Z,0.93
2018-12-21T05:13:10.924Z,0.70
2018-12-21T05:18:15.793Z,0.80
2018-12-21T05:23:20.670Z,0.70
2018-12-21T05:28:25.658Z,0.70
2018-12-21T05:33:30.446Z,0.70
2018-12-21T05:38:35.263Z,0.70
2018-12-21T05:43:40.104Z,0.67
2018-12-21T05:48:45.203Z,0.60
2018-12-21T05:53:50.267Z,0.67
2018-12-21T05:58:55.219Z,0.70
2018-12-21T06:04:00.145Z,0.77
2018-12-21T06:09:07.619Z,0.60
2018-12-21T06:14:12.721Z,0.63
2018-12-21T06:19:17.658Z,0.50
2018-12-21T06:24:22.462Z,0.50
2018-12-21T06:29:27.410Z,0.67
2018-12-21T06:34:32.253Z,0.50
2018-12-21T06:39:36.997Z,0.60
2018-12-21T06:44:42.022Z,0.53
2018-12-21T06:49:46.869Z,0.60
2018-12-21T06:54:51.755Z,0.60
2018-12-21T06:59:56.520Z,0.60
2018-12-21T07:05:01.335Z,0.53
2018-12-21T07:10:07.824Z,0.70
2018-12-21T07:15:12.571Z,0.77
2018-12-21T07:20:17.449Z,0.60
2018-12-21T07:25:22.273Z,0.63
2018-12-21T07:30:28.877Z,0.60
2018-12-21T07:35:33.732Z,0.53
2018-12-21T07:40:38.983Z,0.70
2018-12-21T07:45:43.772Z,0.30
2018-12-21T07:50:48.566Z,0.40
2018-12-21T07:55:53.348Z,0.60
2018-12-21T08:00:58.300Z,0.40
2018-12-21T08:06:03.073Z,0.60
2018-12-21T08:11:07.845Z,0.57
2018-12-21T08:16:12.681Z,0.60
2018-12-21T08:21:17.773Z,0.67
2018-12-21T08:26:22.602Z,0.40
2018-12-21T08:31:27.536Z,0.60
2018-12-21T08:36:32.507Z,0.50
2018-12-21T08:41:37.440Z,0.40
2018-12-21T08:46:42.337Z,0.30
2018-12-21T08:51:47.297Z,0.60
2018-12-21T08:56:52.052Z,0.40
2018-12-21T09:01:56.903Z,0.50
2018-12-21T09:07:01.769Z,0.60
2018-12-21T09:12:06.556Z,0.70
2018-12-21T09:17:11.477Z,0.50
2018-12-21T09:22:16.481Z,0.80
2018-12-21T09:27:22.335Z,0.60
2018-12-21T09:32:27.145Z,0.70
2018-12-21T09:37:32.192Z,0.70
2018-12-21T09:42:36.998Z,0.73
2018-12-21T09:47:41.803Z,0.90
2018-12-21T09:52:47.115Z,1.40
2018-12-21T09:57:51.883Z,1.70
2018-12-21T10:02:56.916Z,1.23
2018-12-21T10:08:03.110Z,1.53
2018-12-21T10:13:08.647Z,1.70
2018-12-21T10:18:14.133Z,2.00
2018-12-21T10:23:18.920Z,1.80
2018-12-21T10:28:23.748Z,1.60
2018-12-21T10:33:29.649Z,2.70
2018-12-21T10:38:34.498Z,2.00
2018-12-21T10:43:39.300Z,1.70
2018-12-21T10:48:44.048Z,2.20
2018-12-21T10:53:48.807Z,2.33
2018-12-21T10:58:53.673Z,2.07
2018-12-21T11:03:58.510Z,2.60
2018-12-21T11:09:04.210Z,2.40
2018-12-21T11:14:09.042Z,2.30
2018-12-21T11:19:14.179Z,2.20
2018-12-21T11:24:18.967Z,2.77
2018-12-21T11:29:23.871Z,2.60
2018-12-21T11:34:28.827Z,2.70
2018-12-21T11:39:33.720Z,2.80
2018-12-21T11:44:38.466Z,2.50
2018-12-21T11:49:43.304Z,2.73
2018-12-21T11:54:48.260Z,2.83
2018-12-21T11:59:53.070Z,3.13
2018-12-21T12:04:57.870Z,3.10
2018-12-21T12:10:02.650Z,2.77
2018-12-21T12:15:08.261Z,3.03
2018-12-21T12:20:13.157Z,3.27
2018-12-21T12:25:18.296Z,3.50
2018-12-21T12:30:23.159Z,3.10
2018-12-21T12:35:27.948Z,3.60
2018-12-21T12:40:32.717Z,3.77
2018-12-21T12:45:37.606Z,3.37
2018-12-21T12:50:42.367Z,3.43
2018-12-21T12:55:47.226Z,3.53
2018-12-21T13:00:52.094Z,4.00
2018-12-21T13:05:56.892Z,4.30
2018-12-21T13:11:01.799Z,3.60
2018-12-21T13:16:06.573Z,4.10
2018-12-21T13:21:11.432Z,4.50
2018-12-21T13:26:16.193Z,4.47
2018-12-21T13:31:21.013Z,4.57
2018-12-21T13:36:25.797Z,4.40
2018-12-21T13:41:30.629Z,4.73
2018-12-21T13:46:35.498Z,5.13
2018-12-21T13:51:40.354Z,5.47
2018-12-21T13:56:45.164Z,5.20
2018-12-21T14:01:49.923Z,5.83
2018-12-21T14:06:54.770Z,5.10
2018-12-21T14:11:59.564Z,5.73
2018-12-21T14:17:04.406Z,5.40
2018-12-21T14:22:09.194Z,5.43
2018-12-21T14:27:14.001Z,5.50
2018-12-21T14:32:18.899Z,5.67
2018-12-21T14:37:23.929Z,5.30
2018-12-21T14:42:28.717Z,4.47
2018-12-21T14:47:33.852Z,5.13
2018-12-21T14:52:38.590Z,5.43
2018-12-21T14:57:43.453Z,4.63
2018-12-21T15:02:48.280Z,5.10
2018-12-21T15:07:53.035Z,5.43
2018-12-21T15:12:57.846Z,4.97
2018-12-21T15:18:02.953Z,4.70
2018-12-21T15:23:07.786Z,5.40
2018-12-21T15:28:12.545Z,5.03
2018-12-21T15:33:17.317Z,5.67
2018-12-21T15:38:22.104Z,4.90
2018-12-21T15:43:26.965Z,5.20
2018-12-21T15:48:31.763Z,5.40
2018-12-21T15:53:37.145Z,5.60
2018-12-21T15:58:41.921Z,5.23
2018-12-21T16:03:46.694Z,5.47
2018-12-21T16:08:51.532Z,5.50
2018-12-21T16:13:56.311Z,5.80
2018-12-21T16:19:01.153Z,5.90
2018-12-21T16:24:07.045Z,5.07
2018-12-21T16:29:12.180Z,5.83
2018-12-21T16:34:17.027Z,5.17
2018-12-21T16:39:21.830Z,5.70
2018-12-21T16:44:26.591Z,6.07
2018-12-21T16:49:31.457Z,6.33
2018-12-21T16:54:36.295Z,5.57
2018-12-21T16:59:41.104Z,5.77
2018-12-21T17:04:46.125Z,5.77
2018-12-21T17:09:50.970Z,5.80
2018-12-21T17:14:55.786Z,6.43
2018-12-21T17:20:00.643Z,5.97
2018-12-21T17:25:07.618Z,6.23
2018-12-21T17:30:13.165Z,5.73
2018-12-21T17:35:17.932Z,5.50
2018-12-21T17:40:22.750Z,6.07
2018-12-21T17:45:27.536Z,6.23
2018-12-21T17:50:32.365Z,6.07
2018-12-21T17:55:38.155Z,5.43
2018-12-21T18:00:43.007Z,6.20
2018-12-21T18:05:47.768Z,5.97
2018-12-21T18:10:52.616Z,5.63
2018-12-21T18:15:57.401Z,5.53
2018-12-21T18:21:02.740Z,5.63
2018-12-21T18:26:07.691Z,5.67
2018-12-21T18:31:24.333Z,4.53
2018-12-21T18:36:29.229Z,4.23
2018-12-21T18:41:34.371Z,3.70
2018-12-21T18:46:39.207Z,3.20
2018-12-21T18:51:44.011Z,3.13
2018-12-21T18:56:55.023Z,3.13
2018-12-21T19:01:59.872Z,2.53
2018-12-21T19:07:04.778Z,2.83
2018-12-21T19:12:09.922Z,2.40
2018-12-21T19:17:14.847Z,2.30
2018-12-21T19:22:19.591Z,2.67
2018-12-21T19:27:24.424Z,2.27
2018-12-21T19:32:29.214Z,2.13
2018-12-21T19:37:34.008Z,2.03
2018-12-21T19:42:39.256Z,1.87
2018-12-21T19:47:44.023Z,2.00
2018-12-21T19:52:48.936Z,1.80
2018-12-21T19:57:53.785Z,1.77
2018-12-21T20:02:58.587Z,2.10
2018-12-21T20:08:03.421Z,1.60
2018-12-21T20:13:08.231Z,1.70
2018-12-21T20:18:13.157Z,1.70
2018-12-21T20:23:17.980Z,1.57
2018-12-21T20:28:22.847Z,1.97
2018-12-21T20:33:27.761Z,2.10
2018-12-21T20:38:32.558Z,2.17
2018-12-21T20:43:37.350Z,2.07
2018-12-21T20:48:42.165Z,2.03
2018-12-21T20:53:46.962Z,2.20
2018-12-21T20:58:56.404Z,2.10
2018-12-21T21:04:01.356Z,2.07
2018-12-21T21:09:08.812Z,1.90
2018-12-21T21:14:14.944Z,2.17
2018-12-21T21:19:19.711Z,2.10
2018-12-21T21:24:24.458Z,2.17
2018-12-21T21:29:31.185Z,2.50
2018-12-21T21:34:36.004Z,2.50
2018-12-21T21:39:40.870Z,2.67
2018-12-21T21:44:45.606Z,3.60
2018-12-21T21:49:50.468Z,3.37
2018-12-21T21:54:55.285Z,3.83
2018-12-21T22:00:00.049Z,4.37
2018-12-21T22:05:04.915Z,5.40
2018-12-21T22:10:10.874Z,5.07
2018-12-21T22:15:15.729Z,5.83
2018-12-21T22:20:20.505Z,6.77
2018-12-21T22:25:25.305Z,6.30
2018-12-21T22:30:30.127Z,5.83
2018-12-21T22:35:34.928Z,6.33
2018-12-21T22:40:39.710Z,6.20
2018-12-21T22:45:44.571Z,5.93
2018-12-21T22:50:49.350Z,5.27
2018-12-21T22:55:54.100Z,6.43
2018-12-21T23:00:58.877Z,6.50
2018-12-21T23:06:03.828Z,6.80
2018-12-21T23:11:08.683Z,6.50
2018-12-21T23:16:13.717Z,6.60
2018-12-21T23:21:18.515Z,6.27
2018-12-21T23:26:23.509Z,6.57
2018-12-21T23:31:28.276Z,6.87
2018-12-21T23:36:33.163Z,6.67
2018-12-21T23:41:37.960Z,6.77
2018-12-21T23:46:42.751Z,5.80
2018-12-21T23:51:47.679Z,6.40
2018-12-21T23:56:52.464Z,6.40
